createdAt,value
2022-08-11T00:00:36.484Z,95390.25
2022-08-11T00:02:39.094Z,95387.03
2022-08-11T00:04:39.407Z,95390.97
2022-08-11T00:06:39.256Z,95393.66
2022-08-11T00:08:38.675Z,95387.13
2022-08-11T00:10:39.480Z,95384.00
2022-08-11T00:12:37.947Z,95384.00
2022-08-11T00:14:37.337Z,95387.38
2022-08-11T00:16:36.527Z,95389.41
2022-08-11T00:18:42.681Z,95389.16
2022-08-11T00:20:45.291Z,95394.66
2022-08-11T00:22:46.080Z,95392.81
2022-08-11T00:24:53.663Z,95392.00
2022-08-11T00:26:55.807Z,95392.34
2022-08-11T00:28:54.603Z,95380.75
2022-08-11T00:30:53.819Z,95391.06
2022-08-11T00:32:58.789Z,95388.88
2022-08-11T00:35:55.216Z,95379.00
2022-08-11T00:37:21.776Z,95382.72
2022-08-11T00:39:28.572Z,95381.78
2022-08-11T00:41:35.680Z,95376.53
2022-08-11T00:44:03.062Z,95379.47
2022-08-11T00:46:15.365Z,95383.06
2022-08-11T00:48:27.886Z,95381.06
2022-08-11T00:50:38.938Z,95377.41
2022-08-11T00:53:00.446Z,95384.25
2022-08-11T00:55:34.046Z,95375.69
2022-08-11T00:58:21.880Z,95380.09
2022-08-11T01:00:23.297Z,95374.75
2022-08-11T01:02:40.243Z,95376.09
2022-08-11T01:05:16.937Z,95382.44
2022-08-11T01:08:01.905Z,95374.78
2022-08-11T01:10:15.214Z,95378.47
2022-08-11T01:12:30.680Z,95378.34
2022-08-11T01:15:21.777Z,95373.38
2022-08-11T01:18:10.583Z,95368.06
2022-08-11T01:20:46.241Z,95372.50
2022-08-11T01:23:09.315Z,95375.44
2022-08-11T01:26:02.695Z,95375.59
2022-08-11T01:28:42.990Z,95372.00
2022-08-11T01:31:26.016Z,95367.69
2022-08-11T01:34:06.399Z,95369.06
2022-08-11T01:36:34.335Z,95361.88
2022-08-11T01:39:12.371Z,95359.94
2022-08-11T01:42:01.802Z,95352.94
2022-08-11T01:44:34.821Z,95359.66
2022-08-11T01:46:37.291Z,95363.41
2022-08-11T01:48:43.965Z,95364.44
2022-08-11T01:50:55.146Z,95360.59
2022-08-11T01:53:06.342Z,95358.28
2022-08-11T01:55:13.903Z,95359.19
2022-08-11T01:57:26.054Z,95363.06
2022-08-11T01:59:28.810Z,95359.78
2022-08-11T02:01:41.015Z,95357.09
2022-08-11T02:03:51.376Z,95357.16
2022-08-11T02:06:01.658Z,95359.19
2022-08-11T02:08:11.857Z,95353.50
2022-08-11T02:10:42.569Z,95353.50
2022-08-11T02:12:54.283Z,95360.47
2022-08-11T02:15:05.817Z,95358.88
2022-08-11T02:17:16.650Z,95360.84
2022-08-11T02:19:45.442Z,95364.41
2022-08-11T02:22:20.129Z,95362.56
2022-08-11T02:24:29.415Z,95357.06
2022-08-11T02:26:36.632Z,95370.16
2022-08-11T02:28:50.793Z,95368.66
2022-08-11T02:32:14.841Z,95353.81
2022-08-11T02:33:38.049Z,95368.84
2022-08-11T02:35:47.965Z,95371.03
2022-08-11T02:37:55.990Z,95363.59
2022-08-11T02:40:11.890Z,95363.69
2022-08-11T02:42:32.892Z,95355.00
2022-08-11T02:44:43.227Z,95352.53
2022-08-11T02:46:52.837Z,95349.53
2022-08-11T02:49:35.660Z,95359.84
2022-08-11T02:51:41.337Z,95356.47
2022-08-11T02:53:56.381Z,95358.00
2022-08-11T02:56:08.910Z,95357.66
2022-08-11T02:58:16.431Z,95355.69
2022-08-11T03:00:18.769Z,95356.84
2022-08-11T03:02:41.335Z,95352.34
2022-08-11T03:05:02.389Z,95360.84
2022-08-11T03:07:28.855Z,95361.19
2022-08-11T03:09:41.786Z,95360.66
2022-08-11T03:12:24.752Z,95362.88
2022-08-11T03:14:46.161Z,95364.47
2022-08-11T03:16:53.015Z,95367.41
2022-08-11T03:19:04.548Z,95366.94
2022-08-11T03:21:11.447Z,95367.94
2022-08-11T03:23:20.636Z,95375.97
2022-08-11T03:25:31.757Z,95368.81
2022-08-11T03:27:52.203Z,95359.16
2022-08-11T03:30:06.515Z,95360.66
2022-08-11T03:32:12.487Z,95366.69
2022-08-11T03:34:15.985Z,95366.38
2022-08-11T03:36:29.788Z,95361.72
2022-08-11T03:38:46.782Z,95367.66
2022-08-11T03:42:01.514Z,95359.34
2022-08-11T03:43:58.770Z,95364.47
2022-08-11T03:46:05.090Z,95373.91
2022-08-11T03:48:15.455Z,95370.59
2022-08-11T03:50:28.677Z,95371.09
2022-08-11T03:52:39.435Z,95365.56
2022-08-11T03:54:49.206Z,95369.16
2022-08-11T03:57:37.003Z,95367.53
2022-08-11T04:00:12.877Z,95367.94
2022-08-11T04:02:30.165Z,95365.03
2022-08-11T04:05:00.881Z,95373.59
2022-08-11T04:07:43.088Z,95365.59
2022-08-11T04:10:04.110Z,95369.91
2022-08-11T04:12:36.751Z,95364.22
2022-08-11T04:15:08.003Z,95369.25
2022-08-11T04:17:33.151Z,95376.91
2022-08-11T04:20:15.491Z,95375.91
2022-08-11T04:22:54.378Z,95375.94
2022-08-11T04:25:16.885Z,95373.50
2022-08-11T04:28:05.409Z,95376.78
2022-08-11T04:30:12.144Z,95371.41
2022-08-11T04:32:30.010Z,95375.56
2022-08-11T04:34:45.862Z,95376.00
2022-08-11T04:37:30.823Z,95386.34
2022-08-11T04:39:44.991Z,95378.88
2022-08-11T04:42:53.564Z,95382.31
2022-08-11T04:45:42.486Z,95376.03
2022-08-11T04:48:33.394Z,95380.72
2022-08-11T04:51:17.030Z,95378.88
2022-08-11T04:53:53.321Z,95374.41
2022-08-11T04:56:26.519Z,95377.47
2022-08-11T04:59:02.799Z,95383.69
2022-08-11T05:01:37.833Z,95387.34
2022-08-11T05:04:31.851Z,95388.22
2022-08-11T05:06:58.161Z,95379.50
2022-08-11T05:09:24.142Z,95386.50
2022-08-11T05:11:49.551Z,95387.78
2022-08-11T05:14:08.660Z,95381.59
2022-08-11T05:16:30.643Z,95385.53
2022-08-11T05:18:48.506Z,95380.16
2022-08-11T05:21:09.686Z,95378.34
2022-08-11T05:23:29.018Z,95381.16
2022-08-11T05:26:43.961Z,95384.03
2022-08-11T05:28:30.174Z,95384.50
2022-08-11T05:30:47.864Z,95385.91
2022-08-11T05:33:14.390Z,95384.03
2022-08-11T05:35:18.498Z,95376.22
2022-08-11T05:37:39.899Z,95378.66
2022-08-11T05:40:05.645Z,95380.38
2022-08-11T05:42:30.384Z,95374.16
2022-08-11T05:44:49.538Z,95374.16
2022-08-11T05:47:06.727Z,95376.66
2022-08-11T05:49:29.001Z,95379.72
2022-08-11T05:51:55.138Z,95385.31
2022-08-11T05:54:28.502Z,95386.34
2022-08-11T05:56:28.438Z,95382.66
2022-08-11T05:58:28.654Z,95373.97
2022-08-11T06:00:28.670Z,95375.59
2022-08-11T06:02:28.791Z,95370.66
2022-08-11T06:04:30.784Z,95380.72
2022-08-11T06:06:30.875Z,95379.03
2022-08-11T06:08:31.436Z,95376.03
2022-08-11T06:10:34.781Z,95377.94
2022-08-11T06:12:37.675Z,95380.00
2022-08-11T06:14:44.757Z,95376.88
2022-08-11T06:16:44.843Z,95371.13
2022-08-11T06:18:47.941Z,95366.59
2022-08-11T06:20:54.248Z,95369.16
2022-08-11T06:23:03.880Z,95367.16
2022-08-11T06:25:03.886Z,95363.81
2022-08-11T06:27:12.265Z,95367.97
2022-08-11T06:29:16.105Z,95363.41
2022-08-11T06:31:18.119Z,95366.06
2022-08-11T06:33:20.257Z,95352.00
2022-08-11T06:35:24.765Z,95355.97
2022-08-11T06:37:36.666Z,95358.81
2022-08-11T06:39:49.862Z,95357.97
2022-08-11T06:41:53.382Z,95364.09
2022-08-11T06:44:05.241Z,95363.44
2022-08-11T06:46:09.731Z,95367.41
2022-08-11T06:48:16.771Z,95369.47
2022-08-11T06:50:37.186Z,95367.66
2022-08-11T06:52:40.104Z,95360.44
2022-08-11T06:54:41.834Z,95365.47
2022-08-11T06:57:28.328Z,95365.94
2022-08-11T06:59:37.210Z,95367.56
2022-08-11T07:01:46.775Z,95356.66
2022-08-11T07:03:49.718Z,95363.16
2022-08-11T07:05:53.189Z,95361.91
2022-08-11T07:08:44.344Z,95362.78
2022-08-11T07:11:36.388Z,95361.88
2022-08-11T07:14:12.763Z,95373.25
2022-08-11T07:17:24.309Z,95362.56
2022-08-11T07:20:36.158Z,95368.47
2022-08-11T07:23:14.861Z,95363.53
2022-08-11T07:25:43.455Z,95375.13
2022-08-11T07:28:02.724Z,95371.94
2022-08-11T07:30:03.879Z,95359.50
2022-08-11T07:32:10.417Z,95368.00
2022-08-11T07:34:21.512Z,95358.47
2022-08-11T07:36:21.563Z,95357.53
2022-08-11T07:38:43.453Z,95360.00
2022-08-11T07:40:47.802Z,95358.59
2022-08-11T07:43:05.547Z,95357.31
2022-08-11T07:45:26.479Z,95350.56
2022-08-11T07:47:43.289Z,95347.16
2022-08-11T07:50:02.465Z,95353.50
2022-08-11T07:52:18.474Z,95351.59
2022-08-11T07:54:17.507Z,95348.53
2022-08-11T07:56:21.857Z,95354.06
2022-08-11T07:59:04.302Z,95349.22
2022-08-11T08:01:24.974Z,95347.78
2022-08-11T08:03:54.723Z,95338.38
2022-08-11T08:06:22.234Z,95337.06
2022-08-11T08:08:47.426Z,95347.22
2022-08-11T08:11:03.247Z,95339.78
2022-08-11T08:13:20.744Z,95337.28
2022-08-11T08:15:38.593Z,95339.22
2022-08-11T08:18:20.825Z,95342.53
2022-08-11T08:20:17.534Z,95340.75
2022-08-11T08:22:37.877Z,95344.47
2022-08-11T08:24:36.746Z,95335.31
2022-08-11T08:26:53.074Z,95327.53
2022-08-11T08:28:53.535Z,95334.84
2022-08-11T08:30:52.621Z,95335.81
2022-08-11T08:32:52.800Z,95328.69
2022-08-11T08:34:52.050Z,95337.91
2022-08-11T08:36:52.762Z,95322.75
2022-08-11T08:38:54.212Z,95323.38
2022-08-11T08:40:55.914Z,95332.38
2022-08-11T08:42:57.906Z,95328.34
2022-08-11T08:45:03.472Z,95318.16
2022-08-11T08:47:07.220Z,95319.44
2022-08-11T08:49:06.914Z,95314.00
2022-08-11T08:51:28.841Z,95316.19
2022-08-11T08:53:53.301Z,95318.88
2022-08-11T08:55:59.572Z,95320.50
2022-08-11T08:58:00.758Z,95321.50
2022-08-11T09:00:02.506Z,95315.81
2022-08-11T09:02:06.462Z,95319.84
2022-08-11T09:04:11.786Z,95310.56
2022-08-11T09:06:12.838Z,95314.16
2022-08-11T09:08:12.101Z,95318.06
2022-08-11T09:10:11.968Z,95311.00
2022-08-11T09:12:11.258Z,95308.22
2022-08-11T09:14:14.815Z,95306.09
2022-08-11T09:16:18.131Z,95306.41
2022-08-11T09:18:19.465Z,95301.97
2022-08-11T09:20:20.865Z,95293.50
2022-08-11T09:22:38.943Z,95301.44
2022-08-11T09:25:02.614Z,95303.06
2022-08-11T09:27:07.496Z,95299.47
2022-08-11T09:29:06.719Z,95296.22
2022-08-11T09:31:07.682Z,95300.50
2022-08-11T09:33:08.457Z,95302.16
2022-08-11T09:35:11.313Z,95287.38
2022-08-11T09:37:55.253Z,95288.41
2022-08-11T09:40:05.231Z,95290.63
2022-08-11T09:42:05.641Z,95292.91
2022-08-11T09:44:22.316Z,95300.63
2022-08-11T09:46:28.709Z,95293.25
2022-08-11T09:48:31.532Z,95289.72
2022-08-11T09:50:30.265Z,95283.41
2022-08-11T09:52:33.529Z,95286.38
2022-08-11T09:54:32.029Z,95271.66
2022-08-11T09:57:05.384Z,95278.69
2022-08-11T09:59:04.536Z,95275.88
2022-08-11T10:01:05.451Z,95273.50
2022-08-11T10:03:07.437Z,95273.06
2022-08-11T10:05:27.076Z,95265.44
2022-08-11T10:07:27.036Z,95274.72
2022-08-11T10:09:26.954Z,95266.22
2022-08-11T10:11:26.371Z,95265.44
2022-08-11T10:14:04.837Z,95266.75
2022-08-11T10:16:00.199Z,95259.34
2022-08-11T10:18:35.220Z,95264.41
2022-08-11T10:20:38.371Z,95259.13
2022-08-11T10:22:54.664Z,95265.03
2022-08-11T10:25:11.630Z,95267.09
2022-08-11T10:27:10.178Z,95262.53
2022-08-11T10:29:26.202Z,95263.66
2022-08-11T10:31:57.676Z,95264.72
2022-08-11T10:34:03.483Z,95263.94
2022-08-11T10:36:15.914Z,95259.66
2022-08-11T10:38:15.936Z,95276.06
2022-08-11T10:40:17.487Z,95274.13
2022-08-11T10:42:55.277Z,95263.53
2022-08-11T10:44:54.561Z,95257.97
2022-08-11T10:47:11.625Z,95248.72
2022-08-11T10:49:11.080Z,95237.06
2022-08-11T10:51:42.800Z,95246.72
2022-08-11T10:53:54.707Z,95247.25
2022-08-11T10:56:10.443Z,95242.94
2022-08-11T10:58:27.515Z,95248.56
2022-08-11T11:00:26.005Z,95247.81
2022-08-11T11:02:27.457Z,95234.25
2022-08-11T11:04:34.243Z,95240.38
2022-08-11T11:06:45.050Z,95236.31
2022-08-11T11:08:55.539Z,95230.63
2022-08-11T11:11:00.120Z,95232.88
2022-08-11T11:13:17.817Z,95228.41
2022-08-11T11:15:37.270Z,95227.16
2022-08-11T11:18:01.749Z,95231.47
2022-08-11T11:20:01.921Z,95229.84
2022-08-11T11:22:22.155Z,95227.16
2022-08-11T11:24:37.693Z,95233.41
2022-08-11T11:26:42.473Z,95237.25
2022-08-11T11:29:06.948Z,95232.09
2022-08-11T11:31:15.610Z,95226.44
2022-08-11T11:33:22.360Z,95213.31
2022-08-11T11:35:36.712Z,95227.00
2022-08-11T11:37:38.147Z,95226.22
2022-08-11T11:39:37.847Z,95225.91
2022-08-11T11:41:37.285Z,95225.16
2022-08-11T11:43:37.709Z,95223.06
2022-08-11T11:45:36.507Z,95218.88
2022-08-11T11:47:37.066Z,95216.00
2022-08-11T11:49:39.645Z,95217.22
2022-08-11T11:51:38.849Z,95215.97
2022-08-11T11:53:38.657Z,95214.16
2022-08-11T11:55:38.156Z,95207.06
2022-08-11T11:57:58.642Z,95214.38
2022-08-11T12:00:16.109Z,95204.81
2022-08-11T12:02:16.251Z,95220.84
2022-08-11T12:04:16.652Z,95217.13
2022-08-11T12:06:15.703Z,95222.22
2022-08-11T12:08:15.411Z,95229.00
2022-08-11T12:10:16.105Z,95228.06
2022-08-11T12:12:32.286Z,95219.41
2022-08-11T12:14:32.090Z,95215.78
2022-08-11T12:16:36.134Z,95218.84
2022-08-11T12:18:36.422Z,95207.16
2022-08-11T12:20:35.295Z,95199.66
2022-08-11T12:22:51.278Z,95203.19
2022-08-11T12:25:07.849Z,95211.28
2022-08-11T12:27:27.993Z,95204.34
2022-08-11T12:29:28.772Z,95208.06
2022-08-11T12:31:27.496Z,95212.75
2022-08-11T12:33:25.964Z,95209.50
2022-08-11T12:35:24.505Z,95213.72
2022-08-11T12:37:30.414Z,95222.38
2022-08-11T12:40:15.623Z,95216.41
2022-08-11T12:42:30.766Z,95223.56
2022-08-11T12:45:01.408Z,95232.19
2022-08-11T12:47:02.823Z,95226.13
2022-08-11T12:49:24.193Z,95226.19
2022-08-11T12:52:11.693Z,95229.09
2022-08-11T12:54:10.252Z,95234.09
2022-08-11T12:56:26.870Z,95230.44
2022-08-11T12:58:26.802Z,95221.63
2022-08-11T13:00:45.494Z,95221.31
2022-08-11T13:03:01.425Z,95219.31
2022-08-11T13:05:00.446Z,95218.88
2022-08-11T13:06:58.811Z,95215.19
2022-08-11T13:09:01.412Z,95221.44
2022-08-11T13:11:19.438Z,95217.56
2022-08-11T13:13:54.454Z,95219.34
2022-08-11T13:15:39.872Z,95216.41
2022-08-11T13:17:40.478Z,95211.88
2022-08-11T13:19:49.646Z,95225.06
2022-08-11T13:21:48.944Z,95215.41
2022-08-11T13:23:59.488Z,95221.75
2022-08-11T13:26:02.769Z,95208.25
2022-08-11T13:28:03.244Z,95206.88
2022-08-11T13:30:19.850Z,95201.56
2022-08-11T13:32:26.351Z,95200.81
2022-08-11T13:34:27.026Z,95203.47
2022-08-11T13:36:28.598Z,95196.38
2022-08-11T13:38:27.824Z,95193.44
2022-08-11T13:40:45.851Z,95193.25
2022-08-11T13:42:46.020Z,95193.09
2022-08-11T13:44:45.188Z,95190.47
2022-08-11T13:46:44.784Z,95184.00
2022-08-11T13:48:44.787Z,95191.19
2022-08-11T13:51:00.917Z,95184.00
2022-08-11T13:52:59.459Z,95183.03
2022-08-11T13:54:58.591Z,95174.47
2022-08-11T13:57:01.667Z,95175.53
2022-08-11T13:59:02.419Z,95180.03
2022-08-11T14:01:11.288Z,95180.31
2022-08-11T14:03:24.719Z,95178.97
2022-08-11T14:05:29.638Z,95176.56
2022-08-11T14:07:35.874Z,95163.91
2022-08-11T14:09:38.074Z,95166.50
2022-08-11T14:12:22.437Z,95171.09
2022-08-11T14:14:22.209Z,95161.22
2022-08-11T14:16:28.429Z,95173.66
2022-08-11T14:18:31.657Z,95160.75
2022-08-11T14:20:54.100Z,95168.84
2022-08-11T14:22:52.979Z,95173.22
2022-08-11T14:24:51.518Z,95174.22
2022-08-11T14:26:51.424Z,95169.00
2022-08-11T14:28:51.016Z,95166.31
2022-08-11T14:31:01.450Z,95162.19
2022-08-11T14:33:00.644Z,95161.13
2022-08-11T14:35:15.146Z,95165.41
2022-08-11T14:37:19.990Z,95168.47
2022-08-11T14:39:20.847Z,95164.25
2022-08-11T14:41:37.493Z,95170.59
2022-08-11T14:44:15.562Z,95159.50
2022-08-11T14:48:38.048Z,95161.03
2022-08-11T14:50:37.108Z,95155.53
2022-08-11T14:52:37.526Z,95149.69
2022-08-11T14:54:54.876Z,95160.03
2022-08-11T14:56:56.786Z,95156.19
2022-08-11T14:58:58.283Z,95158.59
2022-08-11T15:00:59.418Z,95153.56
2022-08-11T15:03:13.473Z,95153.78
2022-08-11T15:05:12.785Z,95157.16
2022-08-11T15:07:16.763Z,95154.00
2022-08-11T15:09:18.257Z,95157.72
2022-08-11T15:11:39.492Z,95158.22
2022-08-11T15:13:39.093Z,95150.66
2022-08-11T15:15:55.652Z,95148.25
2022-08-11T15:17:55.844Z,95144.28
2022-08-11T15:20:13.530Z,95151.44
2022-08-11T15:22:29.524Z,95161.22
2022-08-11T15:24:31.039Z,95163.03
2022-08-11T15:26:52.078Z,95170.63
2022-08-11T15:29:11.179Z,95158.66
2022-08-11T15:31:38.600Z,95155.72
2022-08-11T15:33:57.351Z,95155.59
2022-08-11T15:36:15.558Z,95153.38
2022-08-11T15:38:16.613Z,95155.84
2022-08-11T15:40:37.325Z,95150.22
2022-08-11T15:43:07.100Z,95156.97
2022-08-11T15:45:29.656Z,95156.38
2022-08-11T15:47:35.991Z,95159.38
2022-08-11T15:50:10.760Z,95148.47
2022-08-11T15:52:02.846Z,95152.56
2022-08-11T15:54:09.372Z,95152.19
2022-08-11T15:56:11.697Z,95155.44
2022-08-11T15:58:30.070Z,95157.75
2022-08-11T16:00:47.530Z,95168.88
2022-08-11T16:03:04.870Z,95160.28
2022-08-11T16:05:09.547Z,95164.53
2022-08-11T16:11:12.758Z,95163.97
2022-08-11T16:13:31.596Z,95162.09
2022-08-11T16:15:48.814Z,95164.34
2022-08-11T16:17:50.105Z,95169.94
2022-08-11T16:19:52.364Z,95160.22
2022-08-11T16:21:53.984Z,95154.66
2022-08-11T16:23:54.586Z,95163.31
2022-08-11T16:27:02.421Z,95164.16
2022-08-11T16:28:17.205Z,95167.91
2022-08-11T16:30:15.955Z,95166.66
2022-08-11T16:32:20.732Z,95161.47
2022-08-11T16:34:32.831Z,95165.56
2022-08-11T16:36:49.965Z,95174.28
2022-08-11T16:38:50.602Z,95175.56
2022-08-11T16:40:52.248Z,95165.84
2022-08-11T16:43:10.628Z,95173.28
2022-08-11T16:45:29.490Z,95168.72
2022-08-11T16:48:03.380Z,95175.84
2022-08-11T16:49:52.610Z,95180.66
2022-08-11T16:51:51.860Z,95181.50
2022-08-11T16:54:04.473Z,95180.22
2022-08-11T16:56:09.152Z,95175.97
2022-08-11T16:58:26.702Z,95184.84
2022-08-11T17:00:29.971Z,95189.03
2022-08-11T17:02:51.514Z,95182.44
2022-08-11T17:05:12.576Z,95186.88
2022-08-11T17:07:42.092Z,95182.28
2022-08-11T17:09:58.714Z,95198.19
2022-08-11T17:12:16.797Z,95186.88
2022-08-11T17:14:18.623Z,95193.53
2022-08-11T17:16:40.150Z,95197.72
2022-08-11T17:18:45.511Z,95189.03
2022-08-11T17:20:44.374Z,95196.47
2022-08-11T17:23:15.643Z,95206.22
2022-08-11T17:25:17.144Z,95201.03
2022-08-11T17:27:17.966Z,95207.31
2022-08-11T17:29:16.527Z,95215.97
2022-08-11T17:31:33.923Z,95211.25
2022-08-11T17:33:52.993Z,95211.00
2022-08-11T17:35:51.625Z,95211.66
2022-08-11T17:37:51.455Z,95222.81
2022-08-11T17:39:51.831Z,95215.03
2022-08-11T17:42:09.261Z,95216.22
2022-08-11T17:44:28.294Z,95218.34
2022-08-11T17:47:05.154Z,95226.00
2022-08-11T17:49:08.790Z,95237.19
2022-08-11T17:51:13.168Z,95236.56
2022-08-11T17:53:31.288Z,95244.06
2022-08-11T17:55:52.040Z,95242.66
2022-08-11T17:58:09.731Z,95237.94
2022-08-11T18:00:10.199Z,95247.03
2022-08-11T18:02:34.937Z,95251.16
2022-08-11T18:04:35.374Z,95251.00
2022-08-11T18:06:36.186Z,95251.16
2022-08-11T18:08:56.709Z,95250.78
2022-08-11T18:11:17.479Z,95256.34
2022-08-11T18:13:53.261Z,95254.50
2022-08-11T18:16:09.839Z,95259.69
2022-08-11T18:18:25.725Z,95264.44
2022-08-11T18:20:45.084Z,95267.75
2022-08-11T18:23:06.188Z,95266.31
2022-08-11T18:25:27.322Z,95280.56
2022-08-11T18:27:46.367Z,95275.19
2022-08-11T18:30:04.362Z,95274.19
2022-08-11T18:32:27.150Z,95268.84
2022-08-11T18:34:53.609Z,95275.66
2022-08-11T18:37:24.817Z,95272.50
2022-08-11T18:39:46.086Z,95272.75
2022-08-11T18:42:13.092Z,95276.47
2022-08-11T18:44:48.913Z,95279.81
2022-08-11T18:47:08.594Z,95277.94
2022-08-11T18:50:02.619Z,95283.31
2022-08-11T18:52:12.355Z,95283.31
2022-08-11T18:54:30.303Z,95278.34
2022-08-11T18:56:51.788Z,95276.50
2022-08-11T18:59:08.942Z,95285.00
2022-08-11T19:01:28.600Z,95280.22
2022-08-11T19:03:49.286Z,95287.28
2022-08-11T19:06:38.233Z,95285.22
2022-08-11T19:08:47.025Z,95292.00
2022-08-11T19:11:04.481Z,95291.00
2022-08-11T19:13:21.006Z,95282.31
2022-08-11T19:15:38.205Z,95281.72
2022-08-11T19:17:57.187Z,95285.84
2022-08-11T19:20:13.951Z,95279.44
2022-08-11T19:22:29.866Z,95276.34
2022-08-11T19:24:49.630Z,95279.22
2022-08-11T19:27:06.964Z,95277.59
2022-08-11T19:30:07.056Z,95272.03
2022-08-11T19:32:01.633Z,95269.75
2022-08-11T19:34:18.946Z,95279.66
2022-08-11T19:36:35.486Z,95278.81
2022-08-11T19:38:53.382Z,95271.41
2022-08-11T19:41:12.575Z,95274.72
2022-08-11T19:43:31.602Z,95269.31
2022-08-11T19:45:52.710Z,95275.53
2022-08-11T19:48:32.685Z,95269.97
2022-08-11T19:50:46.530Z,95272.38
2022-08-11T19:53:02.967Z,95268.47
2022-08-11T19:55:34.977Z,95268.47
2022-08-11T19:57:55.087Z,95272.63
2022-08-11T20:00:11.691Z,95280.03
2022-08-11T20:02:28.216Z,95276.75
2022-08-11T20:04:44.154Z,95275.06
2022-08-11T20:07:02.324Z,95284.13
2022-08-11T20:09:20.280Z,95278.75
2022-08-11T20:11:36.851Z,95284.56
2022-08-11T20:13:56.155Z,95282.69
2022-08-11T20:16:13.545Z,95283.75
2022-08-11T20:18:32.428Z,95280.03
2022-08-11T20:20:50.070Z,95285.03
2022-08-11T20:23:08.258Z,95278.38
2022-08-11T20:25:25.722Z,95296.94
2022-08-11T20:27:42.465Z,95288.88
2022-08-11T20:30:00.091Z,95287.88
2022-08-11T20:32:16.056Z,95286.22
2022-08-11T20:34:34.613Z,95293.63
2022-08-11T20:36:54.061Z,95292.59
2022-08-11T20:39:11.493Z,95293.22
2022-08-11T20:41:30.613Z,95288.69
2022-08-11T20:44:06.362Z,95287.88
2022-08-11T20:46:26.406Z,95294.44
2022-08-11T20:48:43.291Z,95294.00
2022-08-11T20:51:06.042Z,95293.19
2022-08-11T20:53:23.653Z,95300.84
2022-08-11T20:55:46.172Z,95293.00
2022-08-11T20:58:11.220Z,95293.66
2022-08-11T21:00:38.947Z,95294.06
2022-08-11T21:02:58.043Z,95300.84
2022-08-11T21:07:55.296Z,95293.25
2022-08-11T21:10:18.701Z,95298.19
2022-08-11T21:12:39.181Z,95298.78
2022-08-11T21:14:59.004Z,95299.59
2022-08-11T21:17:27.250Z,95304.97
2022-08-11T21:20:01.377Z,95299.81
2022-08-11T21:22:28.132Z,95304.56
2022-08-11T21:24:47.143Z,95312.19
2022-08-11T21:27:08.265Z,95320.19
2022-08-11T21:29:32.889Z,95323.06
2022-08-11T21:31:51.358Z,95327.97
2022-08-11T21:34:08.465Z,95335.16
2022-08-11T21:36:29.445Z,95331.44
2022-08-11T21:38:46.576Z,95335.31
2022-08-11T21:41:04.925Z,95335.50
2022-08-11T21:43:21.908Z,95339.16
2022-08-11T21:45:39.552Z,95339.53
2022-08-11T21:48:01.046Z,95337.91
2022-08-11T21:50:17.568Z,95341.56
2022-08-11T21:52:35.038Z,95349.41
2022-08-11T21:54:51.008Z,95336.56
2022-08-11T21:57:07.588Z,95337.00
2022-08-11T21:59:24.623Z,95335.31
2022-08-11T22:01:41.012Z,95334.44
2022-08-11T22:03:58.184Z,95331.94
2022-08-11T22:06:14.631Z,95336.69
2022-08-11T22:08:32.192Z,95341.56
2022-08-11T22:10:48.204Z,95338.72
2022-08-11T22:13:04.096Z,95327.78
2022-08-11T22:15:20.054Z,95338.06
2022-08-11T22:17:35.318Z,95341.38
2022-08-11T22:19:52.797Z,95332.50
2022-08-11T22:22:08.699Z,95343.38
2022-08-11T22:24:29.931Z,95334.38
2022-08-11T22:26:47.620Z,95333.94
2022-08-11T22:29:03.347Z,95337.88
2022-08-11T22:31:20.276Z,95335.66
2022-08-11T22:33:37.700Z,95328.00
2022-08-11T22:36:06.686Z,95330.72
2022-08-11T22:38:23.124Z,95326.19
2022-08-11T22:40:40.653Z,95327.63
2022-08-11T22:42:58.234Z,95322.88
2022-08-11T22:45:13.912Z,95321.84
2022-08-11T22:47:40.445Z,95320.41
2022-08-11T22:49:58.640Z,95315.88
2022-08-11T22:52:16.660Z,95317.06
2022-08-11T22:54:33.122Z,95317.66
2022-08-11T22:56:51.550Z,95316.19
2022-08-11T22:59:08.068Z,95310.66
2022-08-11T23:01:24.527Z,95306.59
2022-08-11T23:03:40.650Z,95316.47
2022-08-11T23:05:57.339Z,95311.53
2022-08-11T23:08:14.437Z,95308.44
2022-08-11T23:10:30.486Z,95307.03
2022-08-11T23:12:47.752Z,95307.75
2022-08-11T23:15:04.358Z,95307.81
2022-08-11T23:17:20.666Z,95307.75
2022-08-11T23:20:07.836Z,95305.03
2022-08-11T23:22:13.666Z,95301.81
2022-08-11T23:24:29.711Z,95303.44
2022-08-11T23:26:48.089Z,95305.13
2022-08-11T23:29:06.264Z,95314.81
2022-08-11T23:31:22.462Z,95318.09
2022-08-11T23:33:41.068Z,95312.09
2022-08-11T23:36:04.449Z,95312.34
2022-08-11T23:38:20.939Z,95308.84
2022-08-11T23:40:36.915Z,95308.38
2022-08-11T23:42:56.550Z,95310.06
2022-08-11T23:45:14.023Z,95309.41
2022-08-11T23:47:30.022Z,95297.72
2022-08-11T23:49:46.803Z,95304.47
2022-08-11T23:52:02.854Z,95300.78
2022-08-11T23:54:19.657Z,95306.31
2022-08-11T23:56:35.709Z,95298.38
2022-08-11T23:58:53.122Z,95303.75
